Terminal Aerodrome Forecast
Issued by NWS

Home | Current Version | Previous Version | Text Only | Print | Product List | Glossary On
Versions: 1 2 3 4 5 6 7 8 9 10 11 12 13 14 15 16 17
000
FTUS41 KCAR 251730
TAFBHB
TAF
KBHB 251730Z 2518/2618 09010KT P6SM SCT100 BKN180
     FM260000 08012G18KT P6SM VCSH BKN035
     FM260200 08014G22KT 5SM -RA OVC015
     FM260900 05015G24KT 3SM -RA BR OVC005
     FM261200 05010KT 2SM RA BR OVC004=

USA.gov is the U.S. government's official web portal to all federal, state and local government web resources and services.